Time;durP1;ratioP1;P1;durP2;ratioP2;P2;SDS_P1;SDS_P2;PMS_P1;PMS_P2;Temp;Humidity;BMP_temperature;BMP_pressure;BME280_temperature;BME280_humidity;BME280_pressure;Samples;Min_cycle;Max_cycle;Signal;HPM_P1;HPM_P2
2023/04/17 00:01:26;;;;;;;1.20;1.20;;;;;;;5.56;100.00;96587.16;5028789;28;105328;-66
2023/04/17 00:04:17;;;;;;;1.37;1.00;;;;;;;5.53;100.00;96583.13;5028904;28;101863;-67
2023/04/17 00:06:43;;;;;;;1.27;1.23;;;;;;;5.56;100.00;96581.91;5029020;28;102991;-67
2023/04/17 00:09:12;;;;;;;1.70;1.60;;;;;;;5.60;100.00;96581.25;5008789;28;105325;-67
2023/04/17 00:11:40;;;;;;;2.23;1.47;;;;;;;5.57;100.00;96575.59;5009600;28;101884;-67
2023/04/17 00:14:08;;;;;;;1.57;1.47;;;;;;;5.34;100.00;96578.00;5029335;28;105197;-67
2023/04/17 00:16:35;;;;;;;1.30;1.30;;;;;;;5.40;100.00;96571.88;5030214;28;105734;-67
2023/04/17 00:19:02;;;;;;;1.20;1.20;;;;;;;5.37;100.00;96574.91;5029158;27;105163;-67
2023/04/17 00:21:30;;;;;;;1.20;1.20;;;;;;;5.35;100.00;96572.47;5027046;28;104439;-67
2023/04/17 00:23:58;;;;;;;1.30;1.20;;;;;;;5.25;100.00;96568.72;5028590;28;101954;-67
2023/04/17 00:26:27;;;;;;;1.33;1.23;;;;;;;5.28;100.00;96571.72;5027391;28;104814;-67
2023/04/17 00:28:54;;;;;;;1.40;1.00;;;;;;;5.20;100.00;96568.53;5011735;28;105050;-67
2023/04/17 00:31:21;;;;;;;1.57;1.23;;;;;;;5.35;100.00;96566.41;5009083;28;101964;-67
2023/04/17 00:34:03;;;;;;;1.53;1.43;;;;;;;5.40;100.00;96561.31;5009006;28;104050;-67
2023/04/17 00:36:30;;;;;;;1.40;1.30;;;;;;;5.43;100.00;96561.69;5024933;28;105096;-67
2023/04/17 00:38:57;;;;;;;1.37;1.37;;;;;;;5.40;100.00;96563.94;5032541;28;101867;-67
2023/04/17 00:41:27;;;;;;;1.53;1.43;;;;;;;5.30;100.00;96559.13;5028144;28;105500;-67
2023/04/17 00:44:26;;;;;;;1.77;1.63;;;;;;;5.28;100.00;96563.81;5019154;28;101947;-67
2023/04/17 00:46:53;;;;;;;1.60;1.50;;;;;;;5.33;100.00;96565.81;5042788;27;105166;-67
2023/04/17 00:49:20;;;;;;;1.50;1.40;;;;;;;5.37;100.00;96565.19;5008267;28;105514;-67
2023/04/17 00:51:47;;;;;;;1.47;1.40;;;;;;;5.38;100.00;96563.34;5008872;28;101944;-67
2023/04/17 00:54:30;;;;;;;1.50;1.40;;;;;;;5.45;100.00;96559.63;5008689;28;105217;-67
2023/04/17 00:57:00;;;;;;;1.70;1.60;;;;;;;5.47;100.00;96572.63;5004694;28;105253;-67
2023/04/17 00:59:28;;;;;;;3.63;1.70;;;;;;;5.40;100.00;96571.88;4988653;28;101965;-67
2023/04/17 01:01:57;;;;;;;1.50;1.40;;;;;;;5.38;100.00;96573.88;5015083;28;103806;-67
2023/04/17 01:04:29;;;;;;;1.30;1.30;;;;;;;5.40;100.00;96571.88;5008720;28;101906;-67
2023/04/17 01:06:58;;;;;;;2.10;1.60;;;;;;;5.48;100.00;96568.94;5009584;28;105058;-67
2023/04/17 01:09:25;;;;;;;1.67;1.57;;;;;;;5.49;100.00;96562.66;5025889;28;105281;-67
2023/04/17 01:11:52;;;;;;;1.50;1.40;;;;;;;5.54;100.00;96560.19;5028635;28;101887;-67
2023/04/17 01:14:32;;;;;;;1.80;1.70;;;;;;;5.57;100.00;96562.41;5008845;28;104928;-67
2023/04/17 01:16:59;;;;;;;1.70;1.43;;;;;;;5.60;100.00;96561.94;5008747;28;105194;-67
2023/04/17 01:19:28;;;;;;;2.53;1.77;;;;;;;5.60;100.00;96567.22;5008402;28;101886;-67
2023/04/17 01:21:55;;;;;;;1.87;1.63;;;;;;;5.56;100.00;96571.34;5009671;28;105021;-67
2023/04/17 01:24:25;;;;;;;2.13;1.60;;;;;;;5.67;100.00;96565.38;5010666;28;101993;-67
2023/04/17 01:26:52;;;;;;;1.70;1.53;;;;;;;5.65;100.00;96568.22;5024900;28;104557;-67
2023/04/17 01:29:22;;;;;;;1.67;1.57;;;;;;;5.64;100.00;96565.78;5010199;27;105059;-66
2023/04/17 01:31:49;;;;;;;1.77;1.53;;;;;;;5.53;100.00;96566.47;5031165;28;101857;-66
2023/04/17 01:34:20;;;;;;;1.80;1.70;;;;;;;5.48;100.00;96563.69;5028413;28;105795;-66
2023/04/17 01:36:49;;;;;;;1.93;1.83;;;;;;;5.42;100.00;96559.25;5031239;28;105205;-66
2023/04/17 01:39:18;;;;;;;1.47;1.40;;;;;;;5.51;100.00;96555.34;5031164;28;101912;-66
2023/04/17 01:41:46;;;;;;;1.90;1.80;;;;;;;5.58;100.00;96556.09;5031695;28;105258;-66
2023/04/17 01:44:17;;;;;;;2.33;2.13;;;;;;;5.59;100.00;96562.97;5032722;28;105353;-66
2023/04/17 01:46:44;;;;;;;1.77;1.67;;;;;;;5.59;100.00;96558.53;5031539;28;105290;-67
2023/04/17 01:49:12;;;;;;;2.20;1.70;;;;;;;5.58;100.00;96562.19;5029229;28;105223;-67
2023/04/17 01:51:39;;;;;;;1.63;1.53;;;;;;;5.61;100.00;96564.38;5012268;28;102000;-67
2023/04/17 01:54:10;;;;;;;1.60;1.50;;;;;;;5.55;100.00;96564.44;5024278;28;105470;-66
2023/04/17 01:56:37;;;;;;;2.20;1.60;;;;;;;5.56;100.00;96568.69;5032349;27;102541;-67
2023/04/17 01:59:05;;;;;;;1.70;1.60;;;;;;;5.60;100.00;96568.03;5031162;28;101931;-67
2023/04/17 02:01:32;;;;;;;1.60;1.50;;;;;;;5.60;100.00;96572.50;5031351;28;105552;-67
2023/04/17 02:04:36;;;;;;;1.40;1.40;;;;;;;5.59;100.00;96565.63;5029020;28;105215;-67
2023/04/17 02:07:03;;;;;;;2.10;1.30;;;;;;;5.65;100.00;96567.41;5036352;27;101954;-67
2023/04/17 02:09:31;;;;;;;2.07;1.53;;;;;;;5.63;100.00;96566.81;5016418;28;102617;-67
2023/04/17 02:11:58;;;;;;;1.90;1.80;;;;;;;5.66;100.00;96561.09;5011135;28;101878;-67
2023/04/17 02:14:26;;;;;;;1.70;1.60;;;;;;;5.66;100.00;96561.09;5011105;28;104875;-67
2023/04/17 02:16:53;;;;;;;2.37;2.27;;;;;;;5.59;100.00;96560.34;5010369;28;105107;-67
2023/04/17 02:19:21;;;;;;;2.40;1.80;;;;;;;5.64;100.00;96568.41;5012622;28;101807;-67
2023/04/17 02:21:48;;;;;;;1.70;1.60;;;;;;;5.65;100.00;96559.47;5011053;28;105096;-67
2023/04/17 02:24:26;;;;;;;2.37;2.27;;;;;;;5.65;100.00;96556.84;5009933;28;105374;-67
2023/04/17 02:26:53;;;;;;;3.50;2.63;;;;;;;5.67;100.00;96557.44;5010907;28;101838;-67
2023/04/17 02:29:20;;;;;;;2.57;2.40;;;;;;;5.66;100.00;96561.09;5014234;28;106067;-67
2023/04/17 02:31:49;;;;;;;2.00;1.90;;;;;;;5.61;100.00;96563.56;5029148;28;101926;-67
2023/04/17 02:34:44;;;;;;;2.00;1.90;;;;;;;5.66;100.00;96569.81;5013682;28;105130;-67
2023/04/17 02:37:11;;;;;;;3.20;2.40;;;;;;;5.78;100.00;96577.88;5010301;28;105018;-66
2023/04/17 02:39:38;;;;;;;2.10;2.00;;;;;;;5.72;100.00;96576.09;5010578;28;101885;-67
2023/04/17 02:42:06;;;;;;;1.90;1.80;;;;;;;5.73;100.00;96577.69;5011713;28;105297;-67
2023/04/17 02:44:41;;;;;;;1.80;1.70;;;;;;;5.76;100.00;96577.25;5028444;28;105297;-67
2023/04/17 02:47:09;;;;;;;2.03;1.70;;;;;;;5.77;100.00;96574.41;5030715;28;101835;-67
2023/04/17 02:49:36;;;;;;;1.93;1.70;;;;;;;5.73;100.00;96572.41;5013277;28;105039;-67
2023/04/17 02:52:03;;;;;;;1.60;1.50;;;;;;;5.71;100.00;96564.72;5013289;28;105295;-67
2023/04/17 02:54:53;;;;;;;1.97;1.87;;;;;;;5.82;100.00;96565.84;5027301;28;105016;-67
2023/04/17 02:57:20;;;;;;;1.67;1.57;;;;;;;5.84;100.00;96569.91;5030002;28;105354;-67
2023/04/17 02:59:47;;;;;;;1.77;1.67;;;;;;;5.80;100.00;96567.91;5010594;28;101986;-67
2023/04/17 03:02:20;;;;;;;1.97;1.87;;;;;;;5.78;100.00;96562.81;5010280;28;105413;-67
2023/04/17 03:04:49;;;;;;;1.90;1.80;;;;;;;5.80;100.00;96560.00;4989851;28;105291;-67
2023/04/17 03:07:18;;;;;;;2.10;2.00;;;;;;;5.82;100.00;96565.84;4990643;28;101883;-67
2023/04/17 03:09:46;;;;;;;2.97;2.27;;;;;;;5.92;100.00;96566.19;4990167;28;104851;-67
2023/04/17 03:12:14;;;;;;;3.43;2.50;;;;;;;5.96;100.00;96570.84;5006598;28;105085;-67
2023/04/17 03:14:41;;;;;;;2.23;2.13;;;;;;;5.93;100.00;96567.78;5032782;28;102100;-67
2023/04/17 03:17:09;;;;;;;2.63;2.43;;;;;;;5.92;100.00;96569.63;5028545;28;105526;-67
2023/04/17 03:19:38;;;;;;;2.60;2.40;;;;;;;5.95;100.00;96576.31;5029801;28;102069;-67
2023/04/17 03:22:05;;;;;;;2.47;2.27;;;;;;;5.89;100.00;96574.53;5029399;28;104876;-67
2023/04/17 03:25:07;;;;;;;2.40;2.20;;;;;;;5.87;100.00;96579.22;5030970;27;102674;-67
2023/04/17 03:27:47;;;;;;;2.17;2.07;;;;;;;5.91;100.00;96580.41;5010461;28;102110;-67
2023/04/17 03:30:15;;;;;;;2.53;2.20;;;;;;;5.89;100.00;96582.47;5009962;28;103917;-67
2023/04/17 03:32:46;;;;;;;2.70;2.50;;;;;;;5.88;100.00;96591.38;5022331;28;105224;-67
2023/04/17 03:35:16;;;;;;;2.30;2.17;;;;;;;5.88;100.00;96591.38;4996520;28;101934;-67
2023/04/17 03:37:43;;;;;;;3.27;2.30;;;;;;;5.77;100.00;96589.41;5010070;28;105370;-67
2023/04/17 03:40:12;;;;;;;2.67;2.47;;;;;;;5.85;100.00;96597.91;5009769;28;101929;-67
2023/04/17 03:42:39;;;;;;;2.53;2.40;;;;;;;5.92;100.00;96595.22;5027087;28;105279;-67
2023/04/17 03:45:24;;;;;;;2.80;2.60;;;;;;;6.00;100.00;96595.75;5028960;28;105116;-67
2023/04/17 03:47:51;;;;;;;3.20;3.00;;;;;;;6.02;100.00;96598.19;5009517;28;102023;-67
2023/04/17 03:50:20;;;;;;;4.90;4.50;;;;;;;6.04;100.00;96601.41;5009581;28;104901;-67
2023/04/17 03:53:01;;;;;;;4.40;3.80;;;;;;;5.98;100.00;96612.81;5013979;27;105756;-67
2023/04/17 03:55:30;;;;;;;3.17;2.70;;;;;;;5.99;100.00;96601.22;5019655;28;101974;-67
2023/04/17 03:57:57;;;;;;;4.03;3.10;;;;;;;5.98;100.00;96600.44;5012612;28;105230;-67
2023/04/17 04:00:27;;;;;;;5.70;3.83;;;;;;;5.95;100.00;96592.16;5018310;28;102084;-67
2023/04/17 04:03:07;;;;;;;3.60;3.30;;;;;;;5.98;100.00;96594.34;5023135;28;105084;-67
2023/04/17 04:05:40;;;;;;;3.60;3.30;;;;;;;6.01;100.00;96602.63;5008822;28;105114;-67
2023/04/17 04:08:08;;;;;;;5.50;4.47;;;;;;;5.95;100.00;96608.00;5010219;28;101924;-67
2023/04/17 04:10:43;;;;;;;5.17;4.67;;;;;;;5.98;100.00;96618.09;5009406;28;103676;-67
2023/04/17 04:16:37;;;;;;;5.60;5.10;;;;;;;6.04;100.00;96604.84;5028970;28;102172;-66
2023/04/17 04:19:10;;;;;;;6.20;5.10;;;;;;;5.99;100.00;96609.16;5029025;28;104743;-66
2023/04/17 04:21:40;;;;;;;5.40;4.73;;;;;;;5.95;100.00;96600.06;5033295;27;102571;-66
2023/04/17 04:24:28;;;;;;;5.90;5.30;;;;;;;5.97;100.00;96614.66;5028102;28;105283;-66
2023/04/17 04:27:01;;;;;;;5.80;5.20;;;;;;;6.01;100.00;96615.84;5028703;28;105210;-66
2023/04/17 04:29:29;;;;;;;5.67;5.03;;;;;;;6.03;100.00;96607.69;5010204;28;102214;-66
2023/04/17 04:32:02;;;;;;;5.80;5.30;;;;;;;5.91;100.00;96606.81;5009133;28;105406;-66
2023/04/17 04:34:35;;;;;;;4.97;4.50;;;;;;;5.90;100.00;96605.19;5008162;28;105302;-66
2023/04/17 04:37:05;;;;;;;5.17;4.53;;;;;;;5.79;100.00;96609.28;5009887;28;101812;-66
2023/04/17 04:39:40;;;;;;;4.80;3.70;;;;;;;5.75;100.00;96600.19;4989014;28;105833;-66
2023/04/17 04:42:10;;;;;;;4.27;3.87;;;;;;;5.80;100.00;96607.50;4994760;28;105622;-66
2023/04/17 04:45:07;;;;;;;4.60;4.20;;;;;;;5.86;100.00;96609.28;4975706;28;101987;-66
2023/04/17 04:47:35;;;;;;;4.43;4.10;;;;;;;5.96;100.00;96612.25;5008194;28;105069;-64
2023/04/17 04:50:04;;;;;;;5.10;4.70;;;;;;;5.91;100.00;96612.06;5008596;28;101849;-66
2023/04/17 04:52:33;;;;;;;5.50;5.00;;;;;;;5.84;100.00;96606.84;5009766;28;105184;-66
2023/04/17 04:55:05;;;;;;;5.50;5.00;;;;;;;5.85;100.00;96608.44;5008200;28;105389;-66
2023/04/17 04:57:35;;;;;;;4.27;3.97;;;;;;;5.86;100.00;96610.09;5027646;28;101983;-67
2023/04/17 05:00:05;;;;;;;6.00;4.57;;;;;;;5.75;100.00;96610.75;5028897;28;104804;-67
2023/04/17 05:02:48;;;;;;;4.80;4.40;;;;;;;5.80;100.00;96616.22;5026454;28;103680;-67
2023/04/17 05:05:18;;;;;;;5.30;4.30;;;;;;;5.94;100.00;96623.00;5009405;28;101954;-67
2023/04/17 05:07:46;;;;;;;5.13;4.73;;;;;;;5.95;100.00;96618.53;5033389;28;105385;-67
2023/04/17 05:10:15;;;;;;;4.43;4.13;;;;;;;5.94;100.00;96619.56;5031862;28;101965;-67
2023/04/17 05:12:48;;;;;;;5.70;4.80;;;;;;;5.98;100.00;96620.75;4994359;28;104501;-65
2023/04/17 05:15:16;;;;;;;4.70;4.30;;;;;;;5.86;100.00;96625.09;5031382;28;105494;-66
2023/04/17 05:17:45;;;;;;;5.50;4.90;;;;;;;5.94;100.00;96625.66;5015100;28;102128;-82
2023/04/17 05:20:14;;;;;;;5.00;4.60;;;;;;;5.79;100.00;96632.25;5030885;28;105382;-66
2023/04/17 05:22:52;;;;;;;4.90;4.43;;;;;;;5.92;100.00;96630.34;5028019;28;105647;-66
2023/04/17 05:25:22;;;;;;;5.60;5.10;;;;;;;5.96;100.00;96631.53;5012976;28;101877;-66
2023/04/17 05:27:49;;;;;;;4.73;4.40;;;;;;;6.05;100.00;96640.78;5011954;28;106794;-66
2023/04/17 05:30:17;;;;;;;5.20;4.47;;;;;;;6.03;100.00;96634.09;5014386;28;105567;-66
2023/04/17 05:32:48;;;;;;;5.03;4.53;;;;;;;6.03;100.00;96636.75;5011891;28;104789;-66
2023/04/17 05:35:35;;;;;;;5.00;4.50;;;;;;;6.10;100.00;96638.31;5011110;28;102474;-66
2023/04/17 05:38:06;;;;;;;5.40;4.90;;;;;;;6.13;100.00;96635.25;5016908;28;101864;-66
2023/04/17 05:40:33;;;;;;;5.57;4.93;;;;;;;6.06;100.00;96641.59;5031827;28;105836;-66
2023/04/17 05:43:07;;;;;;;5.33;4.83;;;;;;;6.09;100.00;96641.97;5025490;28;104919;-66
2023/04/17 05:45:33;;;;;;;5.30;4.90;;;;;;;6.06;100.00;96633.69;5011651;28;101814;-66
2023/04/17 05:48:01;;;;;;;5.60;5.10;;;;;;;6.10;100.00;96632.19;5011317;28;105014;-66
2023/04/17 05:50:27;;;;;;;5.57;5.07;;;;;;;6.22;100.00;96622.56;5015646;28;102981;-66
2023/04/17 05:52:55;;;;;;;7.03;5.60;;;;;;;6.33;100.00;96627.13;5011465;28;104904;-66
2023/04/17 05:55:27;;;;;;;8.30;5.47;;;;;;;6.44;100.00;96629.84;5010785;28;105567;-66
2023/04/17 05:57:58;;;;;;;6.47;5.83;;;;;;;6.50;100.00;96622.91;5012305;28;102330;-66
2023/04/17 06:00:25;;;;;;;5.73;5.33;;;;;;;6.42;100.00;96631.91;5004100;28;105306;-67
2023/04/17 06:03:00;;;;;;;5.30;4.90;;;;;;;6.36;100.00;96630.16;4981710;28;105122;-69
2023/04/17 06:05:34;;;;;;;4.80;4.30;;;;;;;6.37;100.00;96630.94;4991135;28;101989;-66
2023/04/17 06:08:02;;;;;;;5.33;4.83;;;;;;;6.35;100.00;96630.34;5007519;28;105067;-66
2023/04/17 06:10:32;;;;;;;5.07;4.63;;;;;;;6.33;100.00;96632.44;4995060;28;103807;-68
2023/04/17 06:13:07;;;;;;;5.57;5.07;;;;;;;6.55;100.00;96634.41;4994226;28;101844;-66
2023/04/17 06:15:34;;;;;;;6.97;5.43;;;;;;;6.65;100.00;96632.06;5010037;28;105616;-65
2023/04/17 06:18:00;;;;;;;6.10;5.50;;;;;;;6.68;100.00;96633.47;5027129;28;101884;-65
2023/04/17 06:20:27;;;;;;;6.20;5.60;;;;;;;6.65;100.00;96637.34;5010585;28;104747;-66
2023/04/17 06:22:55;;;;;;;7.13;5.40;;;;;;;6.69;100.00;96646.47;5010788;28;102889;-67
2023/04/17 06:25:23;;;;;;;7.17;6.17;;;;;;;6.72;100.00;96639.94;5020548;28;102315;-66
2023/04/17 06:27:51;;;;;;;5.47;4.77;;;;;;;6.65;100.00;96647.13;5030569;28;104990;-72
2023/04/17 06:30:18;;;;;;;6.07;5.47;;;;;;;6.71;100.00;96646.25;5017563;28;105913;-68
2023/04/17 06:32:49;;;;;;;5.63;5.13;;;;;;;6.72;100.00;96650.50;5010290;28;101766;-66
2023/04/17 06:35:18;;;;;;;6.17;5.67;;;;;;;6.70;100.00;96653.38;5013078;28;104922;-66
2023/04/17 06:37:53;;;;;;;6.63;5.90;;;;;;;6.57;100.00;96657.97;5022331;28;101865;-65
2023/04/17 06:40:21;;;;;;;6.20;5.60;;;;;;;6.58;100.00;96663.06;5006288;28;104512;-66
2023/04/17 06:42:48;;;;;;;5.97;5.47;;;;;;;6.66;100.00;96661.97;5005094;28;105134;-70
2023/04/17 06:45:21;;;;;;;6.20;5.70;;;;;;;6.69;100.00;96659.69;5021394;28;102434;-67
2023/04/17 06:47:48;;;;;;;6.30;5.60;;;;;;;6.59;100.00;96669.13;4993699;28;104844;-68
2023/04/17 06:50:17;;;;;;;6.47;5.87;;;;;;;6.50;100.00;96665.16;5004089;28;105848;-68
2023/04/17 06:52:44;;;;;;;6.77;6.17;;;;;;;6.54;100.00;96671.66;5031442;27;101813;-67
2023/04/17 06:55:39;;;;;;;6.60;5.97;;;;;;;6.56;100.00;96666.94;5020676;27;102278;-67
2023/04/17 06:58:07;;;;;;;6.50;5.90;;;;;;;6.46;100.00;96669.25;5012900;28;103939;-70
2023/04/17 07:00:36;;;;;;;5.93;5.43;;;;;;;6.48;100.00;96670.66;5009638;28;105506;-65
2023/04/17 07:03:05;;;;;;;5.97;5.47;;;;;;;6.60;100.00;96676.06;5009329;28;105764;-66
2023/04/17 07:05:32;;;;;;;6.13;5.20;;;;;;;6.71;100.00;96677.97;5018602;28;101977;-67
2023/04/17 07:08:00;;;;;;;5.93;5.33;;;;;;;6.87;100.00;96677.41;5018809;28;105329;-66
2023/04/17 07:10:27;;;;;;;5.57;5.07;;;;;;;7.00;100.00;96677.22;5017480;28;104621;-67
2023/04/17 07:12:54;;;;;;;5.60;5.20;;;;;;;7.04;100.00;96686.34;5024972;28;102153;-67
2023/04/17 07:15:20;;;;;;;5.40;5.00;;;;;;;7.19;100.00;96684.16;5029604;28;104858;-67
2023/04/17 07:17:50;;;;;;;5.90;5.40;;;;;;;7.30;100.00;96694.78;5029220;28;105368;-67
2023/04/17 07:20:17;;;;;;;5.90;5.47;;;;;;;7.33;100.00;96693.53;5014596;28;101903;-66
2023/04/17 07:22:44;;;;;;;5.70;5.20;;;;;;;7.22;100.00;96691.63;4988405;28;105798;-66
2023/04/17 07:25:24;;;;;;;5.83;5.37;;;;;;;7.24;100.00;96694.84;4989685;28;102354;-66
2023/04/17 07:27:54;;;;;;;5.37;4.87;;;;;;;7.48;100.00;96691.31;4990258;28;102938;-66
2023/04/17 07:30:21;;;;;;;5.70;5.20;;;;;;;7.54;100.00;96691.22;5000615;28;103187;-66
2023/04/17 07:32:50;;;;;;;5.70;5.20;;;;;;;7.65;100.00;96693.09;5009447;28;102142;-64
2023/04/17 07:35:17;;;;;;;4.63;4.23;;;;;;;7.58;100.00;96691.59;5009188;28;105438;-66
2023/04/17 07:37:44;;;;;;;6.23;4.03;;;;;;;7.63;100.00;96699.66;5009934;28;102481;-65
2023/04/17 07:40:12;;;;;;;4.13;3.83;;;;;;;7.75;100.00;96703.16;5016284;28;101943;-66
2023/04/17 07:42:39;;;;;;;4.03;3.73;;;;;;;7.81;100.00;96699.59;5032149;28;102453;-67
2023/04/17 07:45:08;;;;;;;3.80;3.60;;;;;;;7.56;100.00;96693.63;5029343;28;101886;-66
2023/04/17 07:47:37;;;;;;;3.53;3.33;;;;;;;7.56;100.00;96697.09;5029338;28;105024;-65
2023/04/17 07:50:06;;;;;;;3.50;3.20;;;;;;;7.57;100.00;96693.41;5015265;28;105240;-65
2023/04/17 07:52:33;;;;;;;3.73;3.43;;;;;;;7.72;100.00;96699.09;4990243;28;101863;-66
2023/04/17 07:55:29;;;;;;;3.33;3.13;;;;;;;7.67;100.00;96700.81;4989291;28;105509;-65
2023/04/17 07:57:56;;;;;;;3.43;3.00;;;;;;;7.75;100.00;96703.16;5000279;28;105063;-66
2023/04/17 08:00:23;;;;;;;3.30;3.10;;;;;;;7.89;100.00;96709.84;5008867;28;102276;-66
2023/04/17 08:02:51;;;;;;;2.60;2.50;;;;;;;7.96;100.00;96702.66;5014585;28;103340;-67
2023/04/17 08:05:19;;;;;;;3.77;3.30;;;;;;;8.23;100.00;96711.84;5027380;28;101883;-67
2023/04/17 08:07:46;;;;;;;3.00;2.80;;;;;;;7.97;100.00;96712.19;5025880;28;105257;-66
2023/04/17 08:10:13;;;;;;;6.43;3.83;;;;;;;7.86;100.00;96707.69;5014019;28;105466;-65
2023/04/17 08:12:43;;;;;;;2.90;2.70;;;;;;;7.73;100.00;96713.97;4988845;28;102186;-65
2023/04/17 08:15:39;;;;;;;2.57;2.47;;;;;;;7.76;100.00;96716.16;4988844;28;106249;-66
2023/04/17 08:18:06;;;;;;;2.73;2.30;;;;;;;7.72;100.00;96712.34;5005131;28;105678;-66
2023/04/17 08:20:34;;;;;;;3.20;3.00;;;;;;;7.62;100.00;96713.91;5021086;28;101891;-66
2023/04/17 08:23:03;;;;;;;2.63;2.50;;;;;;;7.66;100.00;96715.06;5016142;28;105200;-66
2023/04/17 08:25:31;;;;;;;2.73;2.53;;;;;;;7.70;100.00;96721.53;5019261;28;104896;-66
2023/04/17 08:27:57;;;;;;;2.63;2.43;;;;;;;7.96;100.00;96723.84;4988561;28;104911;-66
2023/04/17 08:30:24;;;;;;;2.97;2.77;;;;;;;8.12;100.00;96717.88;4996054;28;105291;-67
2023/04/17 08:32:51;;;;;;;2.27;2.17;;;;;;;8.11;100.00;96713.59;5008450;28;101854;-66
2023/04/17 08:35:20;;;;;;;2.30;2.20;;;;;;;8.22;100.00;96720.81;5008653;28;105295;-67
2023/04/17 08:37:48;;;;;;;3.00;2.70;;;;;;;8.37;100.00;96719.34;5039889;27;105176;-68
2023/04/17 08:40:15;;;;;;;2.43;2.33;;;;;;;8.51;100.00;96719.94;5017585;27;102356;-67
2023/04/17 08:42:43;;;;;;;2.30;2.20;;;;;;;8.60;100.00;96716.72;5009764;28;105064;-64
2023/04/17 08:45:24;;;;;;;2.60;2.40;;;;;;;8.39;100.00;96711.97;5031387;28;105490;-67
2023/04/17 08:47:51;;;;;;;2.83;2.60;;;;;;;8.49;100.00;96709.56;5035758;28;102088;-66
2023/04/17 08:50:20;;;;;;;2.43;2.27;;;;;;;8.58;100.00;96710.03;5027984;28;105014;-67
2023/04/17 08:52:50;;;;;;;2.63;2.43;;;;;;;8.51;100.00;96712.00;5016796;28;101952;-67
2023/04/17 08:55:19;;;;;;;3.17;2.97;;;;;;;8.66;100.00;96702.53;4991980;28;105578;-65
2023/04/17 08:57:57;;;;;;;2.87;2.67;;;;;;;8.68;100.00;96702.31;4991434;28;105327;-66
2023/04/17 09:00:26;;;;;;;2.73;2.53;;;;;;;8.88;100.00;96705.44;4997515;28;102297;-67
2023/04/17 09:02:54;;;;;;;3.60;3.30;;;;;;;9.01;100.00;96700.69;5033298;27;102561;-66
2023/04/17 09:05:22;;;;;;;2.93;2.73;;;;;;;9.00;100.00;96698.28;5027052;28;104316;-65
2023/04/17 09:08:05;;;;;;;2.50;2.30;;;;;;;9.22;100.00;96709.88;5011616;28;101891;-70
2023/04/17 09:10:35;;;;;;;2.80;2.60;;;;;;;9.28;100.00;96700.97;5020051;28;105028;-66
2023/04/17 09:13:38;;;;;;;2.70;2.50;;;;;;;9.24;100.00;96703.31;5031674;28;102012;-65
2023/04/17 09:16:07;;;;;;;2.40;2.20;;;;;;;9.57;100.00;96694.66;5031682;28;104923;-64
2023/04/17 09:18:34;;;;;;;1.90;1.80;;;;;;;9.72;100.00;96687.00;5028663;28;105689;-64
2023/04/17 09:21:03;;;;;;;2.10;2.00;;;;;;;10.01;100.00;96692.03;5011270;28;101920;-64
2023/04/17 09:23:49;;;;;;;2.10;2.00;;;;;;;9.78;100.00;96689.50;5022503;28;103306;-64
2023/04/17 09:26:17;;;;;;;4.30;2.33;;;;;;;10.16;100.00;96688.88;5030758;28;105575;-64
2023/04/17 09:29:03;;;;;;;1.70;1.60;;;;;;;9.97;100.00;96700.75;5033006;28;101883;-64
2023/04/17 09:31:33;;;;;;;1.60;1.50;;;;;;;9.76;100.00;96693.44;5015896;28;105851;-67
2023/04/17 09:34:11;;;;;;;1.57;1.47;;;;;;;9.51;100.00;96687.63;5014037;28;105594;-66
2023/04/17 09:36:40;;;;;;;2.10;1.33;;;;;;;9.29;100.00;96692.78;5012738;28;102526;-67
2023/04/17 09:39:19;;;;;;;1.60;1.50;;;;;;;9.26;100.00;96695.13;5012084;28;103272;-66
2023/04/17 09:41:46;;;;;;;1.67;1.57;;;;;;;9.17;100.00;96696.50;5012554;28;101685;-67
2023/04/17 09:44:35;;;;;;;1.87;1.77;;;;;;;9.05;100.00;96696.50;5011270;28;104779;-67
2023/04/17 09:47:06;;;;;;;1.63;1.53;;;;;;;9.14;100.00;96694.31;5010577;28;105644;-68
2023/04/17 09:49:37;;;;;;;2.83;2.53;;;;;;;9.12;100.00;96696.41;5012656;28;101708;-67
2023/04/17 09:52:04;;;;;;;2.73;2.53;;;;;;;9.30;100.00;96696.25;5011555;28;102901;-67
2023/04/17 09:54:43;;;;;;;2.57;2.37;;;;;;;9.43;100.00;96699.44;5010200;28;103770;-67
2023/04/17 09:57:11;;;;;;;2.50;2.30;;;;;;;9.48;100.00;96696.88;5015913;28;101736;-68
2023/04/17 09:59:40;;;;;;;3.00;2.80;;;;;;;9.37;100.00;96696.94;5010324;28;105517;-68
2023/04/17 10:02:08;;;;;;;3.53;3.17;;;;;;;9.47;100.00;96689.16;5010666;28;101879;-67
2023/04/17 10:05:21;;;;;;;3.50;3.20;;;;;;;9.47;100.00;96694.44;5012027;28;102265;-67
2023/04/17 10:07:49;;;;;;;4.03;3.63;;;;;;;9.30;100.00;96698.88;5011412;28;102798;-68
2023/04/17 10:10:24;;;;;;;3.10;2.90;;;;;;;9.35;100.00;96693.69;5011807;28;102316;-66
2023/04/17 10:12:56;;;;;;;3.40;3.10;;;;;;;9.49;100.00;96692.38;5012304;28;101698;-67
2023/04/17 10:15:24;;;;;;;3.77;3.47;;;;;;;9.66;100.00;96699.34;5010079;28;103636;-67
2023/04/17 10:17:52;;;;;;;3.83;3.30;;;;;;;9.98;100.00;96691.72;5015383;28;101823;-66
2023/04/17 10:20:37;;;;;;;3.90;3.60;;;;;;;9.59;100.00;96690.72;5011054;28;102591;-66
2023/04/17 10:23:32;;;;;;;3.27;3.07;;;;;;;9.69;100.00;96682.13;5011467;28;102015;-66
2023/04/17 10:26:42;;;;;;;4.20;3.80;;;;;;;9.91;100.00;96683.06;5010650;28;103661;-66
2023/04/17 10:29:11;;;;;;;3.40;3.20;;;;;;;10.07;100.00;96674.34;5009956;28;105317;-66
2023/04/17 10:32:24;;;;;;;3.33;3.13;;;;;;;10.30;100.00;96671.56;5009877;28;102357;-63
2023/04/17 10:35:29;;;;;;;3.90;3.50;;;;;;;10.62;100.00;96678.72;5010212;28;104891;-64
2023/04/17 10:38:06;;;;;;;3.53;3.27;;;;;;;10.76;100.00;96672.03;5009763;28;105457;-65
2023/04/17 10:40:34;;;;;;;3.03;2.77;;;;;;;11.07;100.00;96671.38;5006776;28;101822;-65
2023/04/17 10:43:30;;;;;;;3.60;3.30;;;;;;;11.50;100.00;96670.59;4994481;28;102469;-65
2023/04/17 10:46:02;;;;;;;3.03;2.83;;;;;;;11.32;100.00;96666.38;4991374;28;101814;-65
2023/04/17 10:48:35;;;;;;;3.00;2.80;;;;;;;10.70;100.00;96664.22;4991825;28;102309;-65
2023/04/17 10:51:41;;;;;;;3.30;3.10;;;;;;;10.95;100.00;96659.25;5004469;28;105451;-65
2023/04/17 10:54:33;;;;;;;2.70;2.60;;;;;;;10.95;100.00;96656.59;5011452;28;101872;-65
2023/04/17 10:57:06;;;;;;;3.73;3.30;;;;;;;10.69;100.00;96666.06;5028239;28;102435;-65
2023/04/17 10:59:34;;;;;;;3.53;3.33;;;;;;;10.56;100.00;96662.94;5030561;28;103278;-65
2023/04/17 11:02:06;;;;;;;3.27;3.07;;;;;;;10.78;100.00;96661.94;5024557;27;102054;-64
2023/04/17 11:05:06;;;;;;;3.33;3.13;;;;;;;10.90;100.00;96659.19;5030028;28;102348;-65
2023/04/17 11:07:35;;;;;;;3.50;3.20;;;;;;;11.18;100.00;96661.69;5031115;28;103794;-65
2023/04/17 11:10:06;;;;;;;3.80;3.50;;;;;;;11.22;100.00;96665.44;5009779;28;103569;-65
2023/04/17 11:12:33;;;;;;;4.00;3.60;;;;;;;11.18;100.00;96664.34;5009326;28;105506;-65
2023/04/17 11:15:08;;;;;;;3.30;3.10;;;;;;;11.27;100.00;96670.81;5010888;28;101870;-65
2023/04/17 11:17:39;;;;;;;3.63;3.33;;;;;;;11.27;100.00;96665.50;5011370;28;102272;-65
2023/04/17 11:20:06;;;;;;;4.00;3.70;;;;;;;10.74;100.00;96654.69;4994051;28;106008;-65
2023/04/17 11:22:34;;;;;;;4.00;3.60;;;;;;;10.85;100.00;96656.47;4989216;28;101907;-65
2023/04/17 11:25:29;;;;;;;3.73;3.33;;;;;;;11.03;100.00;96654.31;4989833;28;103523;-66
2023/04/17 11:27:57;;;;;;;4.00;3.70;;;;;;;10.81;100.00;96660.66;4979272;28;104033;-65
2023/04/17 11:30:25;;;;;;;3.57;3.27;;;;;;;10.88;100.00;96655.94;4996395;28;102088;-65
2023/04/17 11:33:08;;;;;;;3.87;3.57;;;;;;;11.13;100.00;96657.09;5010148;28;102688;-65
2023/04/17 11:35:36;;;;;;;3.80;3.50;;;;;;;11.36;100.00;96653.38;5009205;28;101648;-66
2023/04/17 11:38:11;;;;;;;3.80;3.50;;;;;;;11.38;100.00;96646.75;5009404;28;105765;-65
2023/04/17 11:40:43;;;;;;;3.70;3.40;;;;;;;11.45;100.00;96654.56;5009837;28;102621;-67
2023/04/17 11:46:33;;;;;;;3.87;3.57;;;;;;;11.88;100.00;96657.19;5030670;27;102788;-66
2023/04/17 11:49:04;;;;;;;3.57;3.27;;;;;;;11.78;100.00;96652.53;5028689;28;106065;-66
2023/04/17 11:51:31;;;;;;;3.83;3.53;;;;;;;11.64;100.00;96655.84;5020504;28;101848;-66
2023/04/17 11:54:26;;;;;;;3.50;3.30;;;;;;;12.04;100.00;96645.63;5033335;27;103032;-66